createdAt,value
2023-04-25T00:02:06.312Z,2.30
2023-04-25T00:07:08.562Z,2.00
2023-04-25T00:12:10.693Z,1.92
2023-04-25T00:17:12.769Z,2.50
2023-04-25T00:22:15.065Z,2.00
2023-04-25T00:27:17.380Z,2.50
2023-04-25T00:32:19.644Z,2.30
2023-04-25T00:37:21.751Z,2.00
2023-04-25T00:42:23.907Z,2.10
2023-04-25T00:47:26.820Z,2.03
2023-04-25T00:52:29.083Z,1.75
2023-04-25T00:57:31.220Z,2.40
2023-04-25T01:02:34.342Z,1.95
2023-04-25T01:07:36.551Z,2.05
2023-04-25T01:12:38.841Z,2.05
2023-04-25T01:17:42.383Z,2.03
2023-04-25T01:22:44.668Z,1.73
2023-04-25T01:27:47.690Z,2.10
2023-04-25T01:32:50.976Z,1.88
2023-04-25T01:37:53.344Z,2.20
2023-04-25T01:42:55.895Z,1.90
2023-04-25T01:48:00.487Z,1.90
2023-04-25T01:53:03.124Z,1.83
2023-04-25T01:58:10.364Z,1.95
2023-04-25T02:03:33.595Z,2.13
2023-04-25T02:08:38.330Z,2.00
2023-04-25T02:13:40.701Z,1.98
2023-04-25T02:18:53.830Z,2.30
2023-04-25T02:23:55.983Z,1.90
2023-04-25T02:28:58.522Z,1.90
2023-04-25T02:34:00.744Z,2.10
2023-04-25T02:39:04.159Z,1.88
2023-04-25T02:44:06.386Z,1.85
2023-04-25T02:49:08.488Z,1.70
2023-04-25T02:54:11.469Z,2.15
2023-04-25T02:59:17.763Z,1.90
2023-04-25T03:04:20.363Z,1.75
2023-04-25T03:09:23.649Z,1.85
2023-04-25T03:14:28.265Z,2.10
2023-04-25T03:19:30.803Z,1.67
2023-04-25T03:24:32.943Z,2.10
2023-04-25T03:29:35.196Z,2.10
2023-04-25T03:34:40.178Z,2.00
2023-04-25T03:39:42.760Z,2.00
2023-04-25T03:44:45.383Z,1.90
2023-04-25T03:49:50.448Z,1.77
2023-04-25T03:54:54.889Z,1.70
2023-04-25T03:59:59.846Z,1.47
2023-04-25T04:05:05.635Z,2.10
2023-04-25T04:10:11.491Z,2.30
2023-04-25T04:15:15.530Z,2.22
2023-04-25T04:20:20.000Z,2.08
2023-04-25T04:25:22.145Z,2.33
2023-04-25T04:30:47.035Z,2.47
2023-04-25T04:35:49.587Z,2.00
2023-04-25T04:40:53.510Z,1.45
2023-04-25T04:46:05.468Z,2.15
2023-04-25T04:51:37.745Z,2.15
2023-04-25T04:56:59.788Z,2.10
2023-04-25T05:02:11.552Z,2.03
2023-04-25T05:07:25.980Z,2.03
2023-04-25T05:12:45.206Z,2.53
2023-04-25T05:18:09.266Z,2.75
2023-04-25T05:23:35.960Z,2.50
2023-04-25T05:28:59.696Z,2.30
2023-04-25T05:34:20.887Z,2.22
2023-04-25T05:39:35.072Z,2.28
2023-04-25T05:44:55.583Z,2.10
2023-04-25T05:50:17.997Z,2.22
2023-04-25T05:55:46.244Z,2.28
2023-04-25T06:01:00.450Z,2.17
2023-04-25T06:06:02.855Z,2.00
2023-04-25T06:11:06.104Z,2.20
2023-04-25T06:16:08.653Z,2.00
2023-04-25T06:21:10.903Z,2.17
2023-04-25T06:26:13.322Z,2.00
2023-04-25T06:31:18.627Z,2.20
2023-04-25T06:36:26.896Z,2.10
2023-04-25T06:41:33.324Z,2.25
2023-04-25T06:46:38.785Z,2.92
2023-04-25T06:51:42.192Z,2.90
2023-04-25T06:56:44.498Z,2.30
2023-04-25T07:01:50.991Z,2.35
2023-04-25T07:06:57.268Z,2.80
2023-04-25T07:12:07.659Z,2.60
2023-04-25T07:17:10.914Z,2.60
2023-04-25T07:22:13.409Z,2.70
2023-04-25T07:27:17.860Z,2.60
2023-04-25T07:32:28.114Z,2.78
2023-04-25T07:37:30.906Z,2.80
2023-04-25T07:42:41.740Z,2.65
2023-04-25T07:47:45.910Z,2.38
2023-04-25T07:52:48.608Z,2.47
2023-04-25T07:58:00.129Z,3.28
2023-04-25T08:03:05.381Z,3.33
2023-04-25T08:08:08.614Z,4.43
2023-04-25T08:13:11.088Z,3.55
2023-04-25T08:18:17.617Z,4.80
2023-04-25T08:23:21.092Z,3.80
2023-04-25T08:28:37.935Z,3.47
2023-04-25T08:33:40.192Z,3.70
2023-04-25T08:39:08.167Z,2.63
2023-04-25T08:44:17.926Z,2.95
2023-04-25T08:49:20.225Z,2.25
2023-04-25T08:54:34.653Z,2.90
2023-04-25T08:59:44.121Z,3.17
2023-04-25T09:04:46.623Z,2.58
2023-04-25T09:09:49.417Z,2.63
2023-04-25T09:15:08.061Z,2.70
2023-04-25T09:20:28.172Z,2.40
2023-04-25T09:25:40.103Z,2.55
2023-04-25T09:30:47.081Z,2.60
2023-04-25T09:35:56.624Z,2.67
2023-04-25T09:41:13.514Z,2.80
2023-04-25T09:46:22.217Z,2.10
2023-04-25T09:51:29.088Z,2.30
2023-04-25T09:56:38.544Z,2.97
2023-04-25T10:01:44.337Z,2.25
2023-04-25T10:07:00.133Z,2.17
2023-04-25T10:12:04.474Z,2.67
2023-04-25T10:17:07.152Z,2.45
2023-04-25T10:22:15.771Z,2.10
2023-04-25T10:27:18.293Z,1.90
2023-04-25T10:32:20.545Z,2.00
2023-04-25T10:37:22.691Z,1.73
2023-04-25T10:42:24.780Z,2.13
2023-04-25T10:47:36.929Z,2.70
2023-04-25T10:52:42.037Z,3.28
2023-04-25T10:57:48.411Z,3.17
2023-04-25T11:02:54.626Z,2.42
2023-04-25T11:08:07.923Z,2.80
2023-04-25T11:13:10.827Z,3.05
2023-04-25T11:18:17.240Z,2.65
2023-04-25T11:23:19.408Z,2.65
2023-04-25T11:28:25.399Z,2.83
2023-04-25T11:33:28.574Z,3.25
2023-04-25T11:38:30.748Z,2.88
2023-04-25T11:43:33.285Z,3.13
2023-04-25T11:48:44.670Z,2.80
2023-04-25T11:53:47.266Z,2.92
2023-04-25T11:59:00.515Z,2.90
2023-04-25T12:04:14.083Z,2.40
2023-04-25T12:14:25.120Z,3.00
2023-04-25T12:19:32.678Z,1.98
2023-04-25T12:24:38.664Z,2.65
2023-04-25T12:29:49.782Z,2.80
2023-04-25T12:34:52.243Z,3.22
2023-04-25T12:39:54.330Z,2.83
2023-04-25T12:44:56.463Z,2.75
2023-04-25T12:49:58.514Z,2.83
2023-04-25T12:55:00.562Z,2.58
2023-04-25T13:00:02.733Z,2.08
2023-04-25T13:05:05.211Z,2.03
2023-04-25T13:10:08.477Z,2.38
2023-04-25T13:15:12.382Z,1.83
2023-04-25T13:20:16.684Z,2.58
2023-04-25T13:25:18.814Z,2.22
2023-04-25T13:30:20.960Z,2.50
2023-04-25T13:35:23.063Z,2.25
2023-04-25T13:40:25.724Z,2.15
2023-04-25T13:45:28.204Z,2.30
2023-04-25T13:50:31.289Z,1.95
2023-04-25T13:55:35.051Z,2.10
2023-04-25T14:00:44.238Z,5.30
2023-04-25T14:05:46.320Z,3.45
2023-04-25T14:10:48.590Z,2.30
2023-04-25T14:15:51.660Z,2.60
2023-04-25T14:20:53.844Z,2.33
2023-04-25T14:25:55.987Z,2.53
2023-04-25T14:30:58.175Z,2.72
2023-04-25T14:36:00.467Z,2.60
2023-04-25T14:41:02.597Z,2.80
2023-04-25T14:46:04.991Z,2.70
2023-04-25T14:51:07.322Z,4.18
2023-04-25T14:56:09.963Z,3.90
2023-04-25T15:01:13.975Z,5.03
2023-04-25T15:06:16.213Z,6.15
2023-04-25T15:11:19.200Z,18.50
2023-04-25T15:16:21.467Z,6.25
2023-04-25T15:21:23.621Z,3.92
2023-04-25T15:26:26.066Z,3.83
2023-04-25T15:31:28.366Z,5.05
2023-04-25T15:36:32.209Z,6.05
2023-04-25T15:41:34.321Z,4.85
2023-04-25T15:46:36.596Z,4.32
2023-04-25T15:51:38.932Z,4.50
2023-04-25T15:56:41.096Z,5.25
2023-04-25T16:01:43.372Z,4.05
2023-04-25T16:06:45.605Z,4.28
2023-04-25T16:11:47.717Z,4.00
2023-04-25T16:16:50.524Z,4.68
2023-04-25T16:21:52.621Z,4.20
2023-04-25T16:26:54.657Z,4.57
2023-04-25T16:31:57.090Z,4.72
2023-04-25T16:36:59.490Z,4.57
2023-04-25T16:42:04.107Z,3.83
2023-04-25T16:47:07.377Z,3.83
2023-04-25T16:52:09.562Z,3.95
2023-04-25T16:57:11.811Z,3.65
2023-04-25T17:02:14.684Z,3.88
2023-04-25T17:07:18.076Z,5.32
2023-04-25T17:12:21.479Z,4.28
2023-04-25T17:17:26.205Z,3.90
2023-04-25T17:22:28.356Z,4.72
2023-04-25T17:27:30.577Z,5.57
2023-04-25T17:32:32.687Z,5.55
2023-04-25T17:37:35.240Z,6.15
2023-04-25T17:42:37.597Z,5.13
2023-04-25T17:47:40.922Z,4.57
2023-04-25T17:52:45.128Z,4.68
2023-04-25T17:57:47.268Z,5.28
2023-04-25T18:02:51.295Z,5.22
2023-04-25T18:07:53.411Z,4.30
2023-04-25T18:12:55.788Z,4.28
2023-04-25T18:17:58.225Z,4.13
2023-04-25T18:23:01.049Z,4.10
2023-04-25T18:28:03.253Z,4.05
2023-04-25T18:33:05.385Z,4.20
2023-04-25T18:38:07.515Z,4.45
2023-04-25T18:43:09.887Z,4.63
2023-04-25T18:48:12.255Z,3.50
2023-04-25T18:53:14.494Z,3.20
2023-04-25T18:58:16.620Z,2.97
2023-04-25T19:03:18.907Z,2.95
2023-04-25T19:08:21.714Z,4.88
2023-04-25T19:13:23.832Z,4.32
2023-04-25T19:18:26.057Z,4.03
2023-04-25T19:23:31.231Z,3.65
2023-04-25T19:28:33.747Z,3.63
2023-04-25T19:33:35.793Z,3.25
2023-04-25T19:38:37.905Z,3.58
2023-04-25T19:43:40.094Z,4.32
2023-04-25T19:48:42.316Z,2.88
2023-04-25T19:53:44.414Z,2.90
2023-04-25T19:58:46.499Z,3.10
2023-04-25T20:03:51.563Z,3.17
2023-04-25T20:08:54.108Z,3.45
2023-04-25T20:13:56.350Z,3.42
2023-04-25T20:18:58.984Z,2.90
2023-04-25T20:24:01.692Z,3.13
2023-04-25T20:29:04.106Z,2.80
2023-04-25T20:34:06.315Z,2.90
2023-04-25T20:39:08.558Z,2.90
2023-04-25T20:44:11.650Z,2.90
2023-04-25T20:49:14.092Z,2.90
2023-04-25T20:54:16.267Z,3.17
2023-04-25T20:59:18.319Z,3.47
2023-04-25T21:04:20.982Z,3.33
2023-04-25T21:09:23.185Z,3.40
2023-04-25T21:14:25.662Z,3.58
2023-04-25T21:19:27.978Z,4.30
2023-04-25T21:24:32.963Z,3.92
2023-04-25T21:29:35.341Z,4.63
2023-04-25T21:34:37.815Z,4.70
2023-04-25T21:39:39.884Z,3.40
2023-04-25T21:44:41.946Z,3.15
2023-04-25T21:49:44.128Z,3.40
2023-04-25T21:54:46.654Z,3.90
2023-04-25T21:59:49.261Z,3.05
2023-04-25T22:04:52.586Z,3.08
2023-04-25T22:09:55.804Z,2.70
2023-04-25T22:14:58.449Z,3.30
2023-04-25T22:20:01.509Z,3.00
2023-04-25T22:25:03.751Z,4.05
2023-04-25T22:30:08.805Z,3.10
2023-04-25T22:35:11.702Z,3.70
2023-04-25T22:40:14.014Z,2.90
2023-04-25T22:45:16.186Z,3.58
2023-04-25T22:50:19.501Z,4.43
2023-04-25T22:55:22.420Z,3.08
2023-04-25T23:00:26.365Z,4.13
2023-04-25T23:05:28.562Z,2.72
2023-04-25T23:10:30.788Z,2.50
2023-04-25T23:15:33.301Z,2.97
2023-04-25T23:20:35.394Z,3.25
2023-04-25T23:25:39.970Z,3.28
2023-04-25T23:30:42.219Z,3.70
2023-04-25T23:35:44.305Z,3.33
2023-04-25T23:40:47.326Z,2.85
2023-04-25T23:45:49.546Z,2.90
2023-04-25T23:50:51.859Z,2.72
2023-04-25T23:55:53.939Z,2.60
